Time;durP1;ratioP1;P1;durP2;ratioP2;P2;SDS_P1;SDS_P2;PMS_P1;PMS_P2;Temp;Humidity;BMP_temperature;BMP_pressure;BME280_temperature;BME280_humidity;BME280_pressure;Samples;Min_cycle;Max_cycle;Signal;HPM_P1;HPM_P2
2021/01/06 00:02:03;;;;;;;36.73;10.00;;;2.20;99.90;;;;;;4881653;29;20830;-64
2021/01/06 00:04:29;;;;;;;29.43;10.27;;;2.30;99.90;;;;;;4881791;29;20525;-64
2021/01/06 00:06:55;;;;;;;39.10;10.73;;;2.30;99.90;;;;;;4881717;29;20454;-64
2021/01/06 00:09:23;;;;;;;39.70;10.87;;;2.30;99.90;;;;;;4882055;29;20450;-64
2021/01/06 00:11:49;;;;;;;25.17;9.27;;;2.30;99.90;;;;;;4881822;29;20457;-64
2021/01/06 00:14:16;;;;;;;69.67;13.83;;;2.20;99.90;;;;;;4881078;29;20506;-64
2021/01/06 00:16:43;;;;;;;69.83;12.73;;;2.20;99.90;;;;;;4881051;29;20505;-64
2021/01/06 00:19:12;;;;;;;49.97;11.67;;;2.10;99.90;;;;;;4881504;29;20477;-64
2021/01/06 00:21:39;;;;;;;89.53;13.77;;;2.10;99.90;;;;;;4881236;29;20514;-64
2021/01/06 00:24:06;;;;;;;74.20;12.13;;;2.00;99.90;;;;;;4881608;29;20533;-64
2021/01/06 00:26:34;;;;;;;34.63;9.87;;;2.00;99.90;;;;;;4881444;29;20457;-64
2021/01/06 00:29:00;;;;;;;92.07;13.77;;;2.00;99.90;;;;;;4881376;29;20537;-64
2021/01/06 00:31:27;;;;;;;40.30;10.33;;;2.10;99.90;;;;;;4881390;29;20486;-64
2021/01/06 00:33:53;;;;;;;81.23;12.47;;;2.20;99.90;;;;;;4881285;29;20470;-64
2021/01/06 00:36:21;;;;;;;65.37;12.50;;;2.20;99.90;;;;;;4881313;29;20461;-64
2021/01/06 00:38:49;;;;;;;46.20;12.20;;;2.10;99.90;;;;;;4880972;29;20918;-64
2021/01/06 00:41:15;;;;;;;60.80;12.83;;;2.10;99.90;;;;;;4880869;29;20981;-64
2021/01/06 00:43:42;;;;;;;51.37;10.93;;;2.10;99.90;;;;;;4881116;29;20480;-64
2021/01/06 00:46:08;;;;;;;65.87;12.10;;;2.20;99.90;;;;;;4881964;29;20509;-64
2021/01/06 00:48:35;;;;;;;132.07;14.83;;;2.20;99.90;;;;;;4881022;29;20481;-64
2021/01/06 00:51:01;;;;;;;66.13;14.00;;;2.20;99.90;;;;;;4880780;29;20440;-64
2021/01/06 00:53:28;;;;;;;49.73;12.00;;;2.20;99.90;;;;;;4880601;29;20493;-64
2021/01/06 00:55:55;;;;;;;39.70;13.17;;;2.20;99.90;;;;;;4880634;29;20969;-64
2021/01/06 00:58:22;;;;;;;30.30;9.77;;;2.20;99.90;;;;;;4881100;29;20424;-64
2021/01/06 01:00:49;;;;;;;38.13;10.93;;;2.20;99.90;;;;;;4880840;29;20457;-64
2021/01/06 01:03:16;;;;;;;57.07;11.60;;;2.20;99.90;;;;;;4880734;29;20460;-64
2021/01/06 01:05:42;;;;;;;42.33;11.03;;;2.10;99.90;;;;;;4880732;29;20413;-64
2021/01/06 01:08:10;;;;;;;40.70;10.53;;;2.20;99.90;;;;;;4880886;29;20468;-64
2021/01/06 01:10:39;;;;;;;32.40;10.27;;;2.10;99.90;;;;;;4881458;29;20449;-64
2021/01/06 01:13:08;;;;;;;59.30;12.13;;;2.10;99.90;;;;;;4880528;29;20470;-64
2021/01/06 01:15:35;;;;;;;21.03;9.20;;;2.10;99.90;;;;;;4880472;29;20469;-64
2021/01/06 01:18:05;;;;;;;20.20;9.83;;;2.10;99.90;;;;;;4880580;29;20487;-64
2021/01/06 01:20:31;;;;;;;30.70;10.20;;;2.10;99.90;;;;;;4880584;29;20446;-64
2021/01/06 01:22:57;;;;;;;17.60;9.27;;;2.10;99.90;;;;;;4880452;29;20481;-64
2021/01/06 01:25:26;;;;;;;18.43;9.20;;;2.10;99.90;;;;;;4880435;29;20506;-64
2021/01/06 01:27:52;;;;;;;16.13;9.10;;;2.10;99.90;;;;;;4880128;29;20489;-64
2021/01/06 01:30:22;;;;;;;18.23;8.50;;;2.10;99.90;;;;;;4880345;29;20456;-64
2021/01/06 01:32:49;;;;;;;18.00;8.87;;;2.00;99.90;;;;;;4880287;29;20570;-64
2021/01/06 01:35:17;;;;;;;15.40;7.97;;;2.00;99.90;;;;;;4880232;29;20510;-64
2021/01/06 01:37:45;;;;;;;22.50;9.57;;;2.00;99.90;;;;;;4880239;29;20449;-64
2021/01/06 01:40:17;;;;;;;16.70;9.30;;;2.00;99.90;;;;;;4879947;29;20962;-64
2021/01/06 01:42:43;;;;;;;22.53;9.50;;;2.00;99.90;;;;;;4879873;29;20443;-64
2021/01/06 01:45:11;;;;;;;17.27;9.10;;;2.00;99.90;;;;;;4880150;29;20453;-64
2021/01/06 01:47:47;;;;;;;19.23;9.27;;;1.90;99.90;;;;;;4880028;29;20485;-64
2021/01/06 01:50:13;;;;;;;20.10;9.40;;;2.00;99.90;;;;;;4880003;29;20460;-64
2021/01/06 01:52:45;;;;;;;15.97;8.27;;;1.90;99.90;;;;;;4879701;29;20486;-64
2021/01/06 01:55:15;;;;;;;15.17;7.77;;;1.90;99.90;;;;;;4879741;29;20439;-64
2021/01/06 01:57:46;;;;;;;15.57;8.33;;;1.90;99.90;;;;;;4879675;29;20433;-64
2021/01/06 02:00:15;;;;;;;16.97;8.07;;;1.90;99.90;;;;;;4879939;29;20755;-64
2021/01/06 02:02:50;;;;;;;14.77;8.00;;;1.90;99.90;;;;;;4879828;29;20429;-64
2021/01/06 02:05:20;;;;;;;13.10;7.37;;;1.90;99.90;;;;;;4879789;29;20509;-64
2021/01/06 02:07:58;;;;;;;18.30;8.90;;;1.80;99.90;;;;;;4879522;29;20453;-64
2021/01/06 02:10:29;;;;;;;16.30;8.53;;;1.80;99.90;;;;;;4879590;29;20915;-64
2021/01/06 02:13:01;;;;;;;13.37;7.40;;;1.80;99.90;;;;;;4879638;29;20785;-64
2021/01/06 02:15:39;;;;;;;13.63;7.97;;;1.90;99.90;;;;;;4879447;29;20413;-64
2021/01/06 02:18:07;;;;;;;12.63;7.63;;;1.90;99.90;;;;;;4879750;29;20409;-64
2021/01/06 02:20:33;;;;;;;19.50;8.10;;;1.90;99.90;;;;;;4880505;29;20484;-64
2021/01/06 02:23:01;;;;;;;11.57;7.07;;;1.90;99.90;;;;;;4879298;29;20444;-64
2021/01/06 02:25:29;;;;;;;15.00;8.23;;;1.90;99.90;;;;;;4879559;29;20461;-64
2021/01/06 02:27:57;;;;;;;13.33;8.33;;;1.80;99.90;;;;;;4879441;29;21040;-64
2021/01/06 02:30:25;;;;;;;15.80;8.83;;;1.70;99.90;;;;;;4879282;29;20950;-64
2021/01/06 02:32:51;;;;;;;14.20;8.10;;;1.80;99.90;;;;;;4879483;29;20462;-64
2021/01/06 02:35:19;;;;;;;14.97;8.97;;;1.80;99.90;;;;;;4879252;29;20461;-64
2021/01/06 02:37:47;;;;;;;13.33;8.37;;;1.70;99.90;;;;;;4879546;29;20420;-64
2021/01/06 02:40:16;;;;;;;12.50;7.27;;;1.80;99.90;;;;;;4883402;29;20454;-64
2021/01/06 02:42:42;;;;;;;16.17;8.23;;;1.80;99.90;;;;;;4883295;29;20544;-64
2021/01/06 02:45:11;;;;;;;18.67;7.77;;;1.80;99.90;;;;;;4883220;29;20428;-64
2021/01/06 02:47:38;;;;;;;13.73;8.07;;;1.80;99.90;;;;;;4883166;29;20478;-64
2021/01/06 02:50:08;;;;;;;14.63;8.03;;;1.80;99.90;;;;;;4883229;29;20449;-64
2021/01/06 02:52:38;;;;;;;19.70;8.37;;;1.80;99.90;;;;;;4882983;29;20844;-64
2021/01/06 02:55:07;;;;;;;12.33;8.07;;;1.80;99.90;;;;;;4883204;29;20442;-64
2021/01/06 02:57:36;;;;;;;13.73;7.30;;;1.80;99.90;;;;;;4882717;29;20449;-64
2021/01/06 03:00:04;;;;;;;14.03;7.57;;;1.80;99.90;;;;;;4883102;29;20581;-64
2021/01/06 03:02:31;;;;;;;13.30;7.17;;;1.80;99.90;;;;;;4882763;29;20453;-64
2021/01/06 03:05:04;;;;;;;13.90;8.27;;;1.80;99.90;;;;;;4882924;29;20461;-64
2021/01/06 03:07:32;;;;;;;15.10;8.00;;;1.80;99.90;;;;;;4883138;29;20474;-64
2021/01/06 03:09:59;;;;;;;11.60;7.47;;;1.80;99.90;;;;;;4882917;29;20502;-64
2021/01/06 03:12:29;;;;;;;12.20;7.20;;;1.70;99.90;;;;;;4882861;29;20457;-64
2021/01/06 03:14:56;;;;;;;13.77;8.60;;;1.70;99.90;;;;;;4883000;29;20469;-64
2021/01/06 03:17:23;;;;;;;10.13;6.47;;;1.80;99.90;;;;;;4882646;29;20435;-64
2021/01/06 03:19:54;;;;;;;11.40;6.87;;;1.70;99.90;;;;;;4882635;29;20454;-64
2021/01/06 03:22:24;;;;;;;12.73;7.93;;;1.80;99.90;;;;;;4882712;29;20417;-64
2021/01/06 03:24:56;;;;;;;12.53;6.40;;;1.70;99.90;;;;;;4882505;29;21002;-64
2021/01/06 03:27:24;;;;;;;13.83;7.80;;;1.70;99.90;;;;;;4882580;29;20435;-65
2021/01/06 03:29:52;;;;;;;13.87;7.30;;;1.70;99.90;;;;;;4882565;29;20867;-64
2021/01/06 03:32:24;;;;;;;9.77;6.70;;;1.70;99.90;;;;;;4882496;29;20455;-64
2021/01/06 03:34:57;;;;;;;12.83;6.90;;;1.70;99.90;;;;;;4882438;29;20455;-64
2021/01/06 03:37:29;;;;;;;9.47;6.60;;;1.80;99.90;;;;;;4882486;29;20468;-64
2021/01/06 03:40:00;;;;;;;9.97;6.63;;;1.70;99.90;;;;;;4882423;29;20438;-64
2021/01/06 03:42:27;;;;;;;17.03;8.33;;;1.60;99.90;;;;;;4882065;29;20919;-64
2021/01/06 03:44:54;;;;;;;13.47;7.30;;;1.70;99.90;;;;;;4882314;29;20459;-64
2021/01/06 03:47:25;;;;;;;12.83;7.10;;;1.60;99.90;;;;;;4881891;29;20969;-64
2021/01/06 03:50:00;;;;;;;14.10;7.43;;;1.60;99.90;;;;;;4882124;29;20438;-64
2021/01/06 03:52:40;;;;;;;13.30;6.50;;;1.60;99.90;;;;;;4881683;29;20980;-64
2021/01/06 03:55:18;;;;;;;14.57;8.27;;;1.70;99.90;;;;;;4882104;29;20436;-64
2021/01/06 03:57:44;;;;;;;13.53;6.90;;;1.70;99.90;;;;;;4882227;29;20415;-64
2021/01/06 04:00:29;;;;;;;13.43;8.10;;;1.70;99.90;;;;;;4881986;29;20425;-64
2021/01/06 04:02:57;;;;;;;11.70;6.07;;;1.70;99.90;;;;;;4881948;29;20469;-64
2021/01/06 04:05:27;;;;;;;10.20;6.43;;;1.70;99.90;;;;;;4881935;29;20502;-64
2021/01/06 04:07:55;;;;;;;11.30;6.80;;;1.80;99.90;;;;;;4881688;29;20482;-64
2021/01/06 04:10:25;;;;;;;10.70;6.87;;;1.80;99.90;;;;;;4881857;29;20435;-64
2021/01/06 04:12:51;;;;;;;11.03;6.80;;;1.70;99.90;;;;;;4881417;29;20985;-64
2021/01/06 04:15:18;;;;;;;10.20;6.03;;;1.80;99.90;;;;;;4881704;29;20436;-64
2021/01/06 04:17:46;;;;;;;8.40;5.93;;;1.70;99.90;;;;;;4881734;29;20445;-64
2021/01/06 04:20:28;;;;;;;8.73;5.63;;;1.70;99.90;;;;;;4881528;29;20450;-64
2021/01/06 04:22:56;;;;;;;13.17;6.60;;;1.70;99.90;;;;;;4881605;29;20802;-64
2021/01/06 04:25:24;;;;;;;8.70;6.10;;;1.70;99.90;;;;;;4881709;29;20465;-64
2021/01/06 04:27:53;;;;;;;8.70;6.00;;;1.70;99.90;;;;;;4881384;29;20492;-64
2021/01/06 04:30:24;;;;;;;8.50;5.90;;;1.70;99.90;;;;;;4881499;29;20429;-65
2021/01/06 04:32:50;;;;;;;9.83;5.67;;;1.70;99.90;;;;;;4881353;29;20768;-64
2021/01/06 04:35:22;;;;;;;8.90;5.50;;;1.60;99.90;;;;;;4881137;29;20510;-64
2021/01/06 04:37:49;;;;;;;9.00;6.30;;;1.60;99.90;;;;;;4881648;29;20438;-64
2021/01/06 04:40:19;;;;;;;9.20;4.80;;;1.60;99.90;;;;;;4881244;29;20803;-64
2021/01/06 04:42:45;;;;;;;9.70;5.70;;;1.60;99.90;;;;;;4881218;29;20456;-64
2021/01/06 04:45:15;;;;;;;9.50;5.73;;;1.60;99.90;;;;;;4881210;29;20492;-64
2021/01/06 04:48:14;;;;;;;7.33;4.97;;;1.50;99.90;;;;;;4880890;29;20477;-64
2021/01/06 04:51:22;;;;;;;7.50;5.60;;;1.50;99.90;;;;;;4881135;29;20434;-64
2021/01/06 04:54:01;;;;;;;9.13;5.80;;;1.50;99.90;;;;;;4819254;29;20507;-64
2021/01/06 04:56:41;;;;;;;9.13;6.60;;;1.60;99.90;;;;;;4823644;29;20944;-64
2021/01/06 04:59:19;;;;;;;7.93;5.40;;;1.60;99.90;;;;;;4862198;29;20991;-65
2021/01/06 05:02:04;;;;;;;9.93;5.67;;;1.60;99.90;;;;;;4880411;29;20407;-63
2021/01/06 05:04:43;;;;;;;10.17;6.47;;;1.60;99.90;;;;;;4880381;29;20853;-63
2021/01/06 05:07:21;;;;;;;16.13;5.93;;;1.50;99.90;;;;;;4880895;29;20438;-63
2021/01/06 05:09:53;;;;;;;9.40;5.50;;;1.60;99.90;;;;;;4880544;29;20919;-63
2021/01/06 05:12:26;;;;;;;8.63;5.90;;;1.60;99.90;;;;;;4880336;29;20757;-64
2021/01/06 05:15:00;;;;;;;10.50;6.43;;;1.60;99.90;;;;;;4880682;29;20478;-64
2021/01/06 05:17:27;;;;;;;11.30;6.63;;;1.60;99.90;;;;;;4880367;29;20967;-64
2021/01/06 05:19:53;;;;;;;10.23;5.50;;;1.60;99.90;;;;;;4880585;29;20477;-64
2021/01/06 05:22:19;;;;;;;9.63;5.37;;;1.60;99.90;;;;;;4880606;29;20457;-64
2021/01/06 05:24:48;;;;;;;9.67;5.73;;;1.60;99.90;;;;;;4880535;29;20538;-64
2021/01/06 05:27:22;;;;;;;12.70;6.40;;;1.60;99.90;;;;;;4880459;29;20457;-64
2021/01/06 05:29:51;;;;;;;10.40;6.33;;;1.60;99.90;;;;;;4880171;29;20907;-64
2021/01/06 05:32:20;;;;;;;11.83;6.33;;;1.60;99.90;;;;;;4880404;29;20453;-64
2021/01/06 05:34:51;;;;;;;7.50;4.87;;;1.50;99.90;;;;;;4880167;29;20481;-64
2021/01/06 05:37:19;;;;;;;9.10;5.40;;;1.50;99.90;;;;;;4880214;29;20433;-64
2021/01/06 05:39:45;;;;;;;10.30;5.73;;;1.50;99.90;;;;;;4880208;29;20451;-64
2021/01/06 05:42:16;;;;;;;11.63;6.67;;;1.40;99.90;;;;;;4880197;29;20484;-64
2021/01/06 05:44:42;;;;;;;9.53;6.23;;;1.40;99.90;;;;;;4880161;29;20455;-64
2021/01/06 05:47:18;;;;;;;8.83;5.67;;;1.30;99.90;;;;;;4880011;29;20461;-64
2021/01/06 05:49:46;;;;;;;12.80;6.90;;;1.20;99.90;;;;;;4880209;29;20841;-64
2021/01/06 05:52:16;;;;;;;10.30;5.83;;;1.20;99.90;;;;;;4879657;29;20421;-64
2021/01/06 05:54:47;;;;;;;13.00;6.63;;;1.20;99.90;;;;;;4880017;29;20531;-64
2021/01/06 05:57:23;;;;;;;11.90;6.50;;;1.30;99.90;;;;;;4879642;29;20909;-64
2021/01/06 06:00:26;;;;;;;10.10;6.60;;;1.40;99.90;;;;;;4879847;29;20465;-64
2021/01/06 06:03:30;;;;;;;9.47;6.50;;;1.40;99.90;;;;;;4879659;29;20525;-64
2021/01/06 06:06:02;;;;;;;8.77;5.40;;;1.40;99.90;;;;;;4879920;29;20457;-64
2021/01/06 06:08:53;;;;;;;11.17;6.60;;;1.40;99.90;;;;;;4879755;29;20997;-64
2021/01/06 06:11:46;;;;;;;12.33;7.00;;;1.40;99.90;;;;;;4879819;29;20477;-64
2021/01/06 06:14:52;;;;;;;9.70;6.50;;;1.30;99.90;;;;;;4878949;29;20448;-63
2021/01/06 06:17:33;;;;;;;10.60;7.37;;;1.30;99.90;;;;;;4879706;29;20825;-64
2021/01/06 06:20:34;;;;;;;14.30;7.10;;;1.40;99.90;;;;;;4879724;29;20442;-64
2021/01/06 06:23:25;;;;;;;11.73;6.87;;;1.40;99.90;;;;;;4879606;29;20977;-64
2021/01/06 06:26:01;;;;;;;10.60;6.30;;;1.30;99.90;;;;;;4879640;29;20463;-64
2021/01/06 06:28:33;;;;;;;10.67;6.80;;;1.20;99.90;;;;;;4879521;29;20470;-64
2021/01/06 06:31:13;;;;;;;10.03;7.00;;;1.30;99.90;;;;;;4879569;29;20911;-64
2021/01/06 06:33:40;;;;;;;10.10;6.70;;;1.40;99.90;;;;;;4879535;29;20469;-64
2021/01/06 06:36:12;;;;;;;11.40;6.43;;;1.40;99.90;;;;;;4879429;29;20424;-64
2021/01/06 06:38:41;;;;;;;9.60;6.97;;;1.50;99.90;;;;;;4879576;29;20435;-64
2021/01/06 06:41:09;;;;;;;11.17;6.57;;;1.50;99.90;;;;;;4879510;29;20458;-64
2021/01/06 06:43:40;;;;;;;12.23;6.67;;;1.40;99.90;;;;;;4879362;29;20465;-64
2021/01/06 06:46:23;;;;;;;10.40;7.07;;;1.40;99.90;;;;;;4879238;29;20979;-64
2021/01/06 06:49:15;;;;;;;8.63;6.33;;;1.40;99.90;;;;;;4879401;29;20890;-64
2021/01/06 06:51:47;;;;;;;9.30;6.07;;;1.50;99.90;;;;;;4879470;29;20412;-64
2021/01/06 06:54:19;;;;;;;11.23;5.23;;;1.40;99.90;;;;;;4879191;29;20474;-64
2021/01/06 06:56:51;;;;;;;10.20;5.67;;;1.40;99.90;;;;;;4879298;29;20446;-64
2021/01/06 06:59:24;;;;;;;10.77;5.67;;;1.50;99.90;;;;;;4879294;29;20437;-64
2021/01/06 07:01:53;;;;;;;9.67;6.27;;;1.50;99.90;;;;;;4879363;29;20416;-64
2021/01/06 07:04:24;;;;;;;11.27;6.20;;;1.50;99.90;;;;;;4879476;29;20440;-64
2021/01/06 07:06:53;;;;;;;13.67;7.17;;;1.40;99.90;;;;;;4879342;29;20435;-64
2021/01/06 07:09:21;;;;;;;11.17;6.07;;;1.40;99.90;;;;;;4879450;29;20497;-64
2021/01/06 07:11:50;;;;;;;9.60;6.20;;;1.40;99.90;;;;;;4879264;29;20456;-64
2021/01/06 07:14:21;;;;;;;8.73;5.77;;;1.40;99.90;;;;;;4879176;29;20477;-64
2021/01/06 07:17:09;;;;;;;10.20;6.17;;;1.40;99.90;;;;;;4879173;29;20417;-64
2021/01/06 07:19:40;;;;;;;10.00;5.50;;;1.40;99.90;;;;;;4879228;29;20439;-64
2021/01/06 07:22:30;;;;;;;12.00;7.07;;;1.40;99.90;;;;;;4879218;29;20412;-64
2021/01/06 07:25:03;;;;;;;14.70;6.93;;;1.50;99.90;;;;;;4881000;29;20448;-64
2021/01/06 07:27:31;;;;;;;11.70;6.63;;;1.40;99.90;;;;;;4882901;29;20434;-64
2021/01/06 07:29:58;;;;;;;12.30;6.13;;;1.50;99.90;;;;;;4882509;29;20420;-64
2021/01/06 07:32:36;;;;;;;10.93;6.50;;;1.40;99.90;;;;;;4882767;29;20441;-63
2021/01/06 07:35:10;;;;;;;9.20;6.13;;;1.40;99.90;;;;;;4882692;29;20543;-63
2021/01/06 07:37:39;;;;;;;10.13;6.93;;;1.40;99.90;;;;;;4882489;29;20528;-63
2021/01/06 07:40:35;;;;;;;12.60;7.00;;;1.50;99.90;;;;;;4882428;29;20445;-63
2021/01/06 07:43:26;;;;;;;10.00;6.20;;;1.40;99.90;;;;;;4882289;29;20496;-64
2021/01/06 07:46:16;;;;;;;8.60;6.53;;;1.30;99.90;;;;;;4864117;29;20461;-64
2021/01/06 07:48:54;;;;;;;12.53;7.10;;;1.40;99.90;;;;;;4882209;29;20445;-64
2021/01/06 07:51:28;;;;;;;14.63;6.30;;;1.40;99.90;;;;;;4882238;29;20442;-64
2021/01/06 07:54:02;;;;;;;11.67;7.10;;;1.50;99.90;;;;;;4881651;29;20471;-64
2021/01/06 07:56:35;;;;;;;11.47;6.90;;;1.50;99.90;;;;;;4882057;29;20437;-64
2021/01/06 07:59:06;;;;;;;11.00;6.03;;;1.50;99.90;;;;;;4882080;29;20450;-64
2021/01/06 08:01:42;;;;;;;10.17;6.70;;;1.50;99.90;;;;;;4881728;29;20905;-64
2021/01/06 08:04:14;;;;;;;11.03;6.23;;;1.50;99.90;;;;;;4881843;29;20463;-64
2021/01/06 08:06:50;;;;;;;12.50;6.97;;;1.50;99.90;;;;;;4881549;29;20885;-64
2021/01/06 08:09:33;;;;;;;14.00;7.23;;;1.50;99.90;;;;;;4881803;29;20535;-64
2021/01/06 08:12:03;;;;;;;10.70;5.80;;;1.50;99.90;;;;;;4881885;29;20442;-64
2021/01/06 08:14:33;;;;;;;10.17;6.37;;;1.50;99.90;;;;;;4881428;29;20452;-64
2021/01/06 08:17:03;;;;;;;11.10;6.97;;;1.50;99.90;;;;;;4881810;29;20417;-64
2021/01/06 08:19:39;;;;;;;11.47;6.50;;;1.60;99.90;;;;;;4881615;29;20495;-64
2021/01/06 08:22:18;;;;;;;10.07;6.50;;;1.60;99.90;;;;;;4881720;29;20446;-64
2021/01/06 08:24:50;;;;;;;10.90;6.47;;;1.50;99.90;;;;;;4882163;29;20448;-64
2021/01/06 08:27:27;;;;;;;13.47;7.00;;;1.60;99.90;;;;;;4881610;29;20439;-63
2021/01/06 08:30:16;;;;;;;10.50;6.13;;;1.60;99.90;;;;;;4881526;29;20480;-64
2021/01/06 08:32:43;;;;;;;8.43;5.73;;;1.60;99.90;;;;;;4881342;29;20473;-64
2021/01/06 08:35:18;;;;;;;9.23;5.43;;;1.60;99.90;;;;;;4881369;29;20434;-64
2021/01/06 08:37:48;;;;;;;17.63;7.30;;;1.70;99.90;;;;;;4880838;29;20454;-64
2021/01/06 08:40:31;;;;;;;13.30;7.67;;;1.70;99.90;;;;;;4881474;29;20436;-64
2021/01/06 08:43:00;;;;;;;11.27;6.70;;;1.80;99.90;;;;;;4881222;29;20453;-64
2021/01/06 08:45:30;;;;;;;11.30;6.80;;;1.70;99.90;;;;;;4880934;29;20429;-64
2021/01/06 08:47:57;;;;;;;10.73;7.07;;;1.70;99.90;;;;;;4881067;29;20442;-64
2021/01/06 08:50:37;;;;;;;12.23;7.43;;;1.70;99.90;;;;;;4881166;29;20450;-64
2021/01/06 08:53:05;;;;;;;11.47;7.23;;;1.80;99.90;;;;;;4880909;29;20496;-64
2021/01/06 08:55:33;;;;;;;13.27;7.27;;;1.70;99.90;;;;;;4880761;29;20954;-65
2021/01/06 08:58:03;;;;;;;14.83;7.50;;;1.70;99.90;;;;;;4881020;29;20449;-64
2021/01/06 09:00:34;;;;;;;9.87;6.70;;;1.70;99.90;;;;;;4881216;29;20456;-64
2021/01/06 09:03:09;;;;;;;11.00;6.87;;;1.70;99.90;;;;;;4881134;29;20443;-64
2021/01/06 09:05:52;;;;;;;14.20;7.50;;;1.60;99.90;;;;;;4880813;29;20464;-64
2021/01/06 09:08:21;;;;;;;9.20;6.80;;;1.70;99.90;;;;;;4880368;29;20982;-64
2021/01/06 09:10:58;;;;;;;9.53;6.50;;;1.70;99.90;;;;;;4880735;29;20476;-64
2021/01/06 09:13:31;;;;;;;9.87;6.53;;;1.70;99.90;;;;;;4880676;29;20558;-64
2021/01/06 09:16:02;;;;;;;9.57;6.70;;;1.70;99.90;;;;;;4880680;29;20413;-64
2021/01/06 09:18:34;;;;;;;10.50;7.17;;;1.80;99.90;;;;;;4880850;29;20445;-64
2021/01/06 09:21:10;;;;;;;11.93;6.30;;;1.80;99.90;;;;;;4880590;29;20438;-64
2021/01/06 09:23:39;;;;;;;13.93;8.17;;;1.90;99.90;;;;;;4880434;29;20526;-63
2021/01/06 09:26:06;;;;;;;10.20;6.63;;;1.80;99.90;;;;;;4880383;29;20817;-64
2021/01/06 09:28:37;;;;;;;10.23;6.43;;;1.80;99.90;;;;;;4880367;29;20467;-64
2021/01/06 09:31:05;;;;;;;7.37;5.97;;;1.80;99.90;;;;;;4880558;29;20442;-64
2021/01/06 09:33:34;;;;;;;8.70;6.10;;;1.80;99.90;;;;;;4880296;29;20490;-67
2021/01/06 09:36:01;;;;;;;9.70;6.60;;;1.80;99.90;;;;;;4880289;29;20413;-68
2021/01/06 09:38:31;;;;;;;9.67;6.50;;;1.80;99.90;;;;;;4880319;29;20445;-68
2021/01/06 09:41:02;;;;;;;9.17;6.20;;;1.90;99.90;;;;;;4880185;29;20781;-67
2021/01/06 09:43:36;;;;;;;11.00;6.57;;;1.90;99.90;;;;;;4879683;29;20983;-68
2021/01/06 09:46:11;;;;;;;11.67;6.30;;;1.90;99.90;;;;;;4880215;29;20416;-68
2021/01/06 09:48:38;;;;;;;9.77;6.40;;;2.00;99.90;;;;;;4879857;29;20458;-68
2021/01/06 09:51:05;;;;;;;10.90;7.10;;;2.00;99.90;;;;;;4880098;29;20413;-68
2021/01/06 09:53:33;;;;;;;7.57;5.63;;;2.00;99.90;;;;;;4879712;29;20545;-68
2021/01/06 09:56:00;;;;;;;6.93;5.17;;;2.00;99.90;;;;;;4880026;29;20413;-68
2021/01/06 09:58:30;;;;;;;6.80;5.00;;;2.00;99.90;;;;;;4879877;29;20413;-68
2021/01/06 10:01:06;;;;;;;6.93;5.03;;;2.00;99.90;;;;;;4880016;29;20434;-68
2021/01/06 10:03:37;;;;;;;7.37;5.47;;;1.90;99.90;;;;;;4879857;29;20467;-68
2021/01/06 10:06:23;;;;;;;9.43;5.90;;;2.00;99.90;;;;;;4879900;29;20417;-68
2021/01/06 10:08:58;;;;;;;9.10;6.40;;;2.10;99.90;;;;;;4879495;29;20470;-68
2021/01/06 10:11:41;;;;;;;9.07;5.57;;;2.10;99.90;;;;;;4879900;29;20516;-68
2021/01/06 10:14:22;;;;;;;7.70;5.60;;;2.10;99.90;;;;;;4879830;29;20473;-68
2021/01/06 10:16:53;;;;;;;7.53;5.43;;;2.20;99.90;;;;;;4879486;29;20419;-68
2021/01/06 10:19:36;;;;;;;8.27;5.50;;;2.20;99.90;;;;;;4879469;29;20438;-68
2021/01/06 10:22:14;;;;;;;9.20;5.73;;;2.20;99.90;;;;;;4879652;29;20445;-68
2021/01/06 10:24:54;;;;;;;7.70;5.10;;;2.10;99.90;;;;;;4879442;29;20489;-68
2021/01/06 10:27:28;;;;;;;5.90;4.57;;;2.10;99.90;;;;;;4879323;29;20409;-68
2021/01/06 10:29:55;;;;;;;6.73;4.70;;;2.10;99.90;;;;;;4879434;29;20448;-68
2021/01/06 10:32:38;;;;;;;5.67;4.70;;;2.10;99.90;;;;;;4880328;29;20457;-67
2021/01/06 10:35:46;;;;;;;5.80;4.50;;;2.20;99.90;;;;;;4879344;29;20560;-68
2021/01/06 10:38:27;;;;;;;6.63;4.53;;;2.30;99.90;;;;;;4873054;29;20458;-68
2021/01/06 10:41:09;;;;;;;7.50;5.10;;;2.30;99.90;;;;;;4879138;29;20910;-68
2021/01/06 10:43:45;;;;;;;7.07;5.00;;;2.30;99.90;;;;;;4879020;29;20488;-68
2021/01/06 10:46:42;;;;;;;8.63;5.47;;;2.30;99.90;;;;;;4879263;29;20438;-68
2021/01/06 10:49:33;;;;;;;6.50;4.47;;;2.20;99.90;;;;;;4879224;29;20469;-68
2021/01/06 10:52:12;;;;;;;8.50;4.50;;;2.20;99.90;;;;;;4878856;29;20428;-67
2021/01/06 10:54:42;;;;;;;8.10;5.10;;;2.20;99.90;;;;;;4879150;29;20469;-68
2021/01/06 10:57:23;;;;;;;8.73;5.20;;;2.20;99.90;;;;;;4879197;29;20485;-68
2021/01/06 11:00:20;;;;;;;6.40;4.90;;;2.20;99.90;;;;;;4880814;29;20430;-68
2021/01/06 11:03:12;;;;;;;7.70;5.03;;;2.10;99.90;;;;;;4840797;29;20489;-68
2021/01/06 11:05:42;;;;;;;10.50;5.60;;;2.10;99.90;;;;;;4882628;29;20922;-68
2021/01/06 11:08:49;;;;;;;6.33;5.10;;;2.20;99.90;;;;;;4882745;29;20408;-68
2021/01/06 11:11:38;;;;;;;6.83;4.63;;;2.20;99.90;;;;;;4882841;29;20537;-68
2021/01/06 11:14:27;;;;;;;6.80;4.80;;;2.30;99.90;;;;;;4844777;29;20459;-68
2021/01/06 11:16:57;;;;;;;9.00;5.70;;;2.30;99.90;;;;;;4882607;29;20461;-68
2021/01/06 11:19:43;;;;;;;7.23;5.33;;;2.30;99.90;;;;;;4882577;29;20474;-68
2021/01/06 11:22:33;;;;;;;9.30;4.90;;;2.20;99.90;;;;;;4882558;29;20437;-68
2021/01/06 11:25:02;;;;;;;6.50;4.30;;;2.30;99.90;;;;;;4882493;29;20907;-68
2021/01/06 11:27:42;;;;;;;12.27;6.10;;;2.20;99.90;;;;;;4882642;29;20453;-68
2021/01/06 11:30:33;;;;;;;9.90;5.63;;;2.30;99.90;;;;;;4882011;29;20986;-68
2021/01/06 11:33:19;;;;;;;6.90;4.47;;;2.30;99.90;;;;;;4863998;29;20473;-68
2021/01/06 11:35:49;;;;;;;8.53;6.23;;;2.20;99.90;;;;;;4882542;29;20476;-68
2021/01/06 11:38:48;;;;;;;9.30;6.03;;;2.20;99.90;;;;;;4882508;29;20456;-68
2021/01/06 11:41:17;;;;;;;9.77;6.10;;;2.20;99.90;;;;;;4882454;29;20472;-68
2021/01/06 11:43:59;;;;;;;9.00;6.37;;;2.20;99.90;;;;;;4882284;29;21016;-68
2021/01/06 11:46:52;;;;;;;8.20;5.13;;;2.20;99.90;;;;;;4879888;29;20469;-68
2021/01/06 11:49:31;;;;;;;13.73;5.40;;;2.20;99.90;;;;;;4882170;29;20470;-68
2021/01/06 11:52:45;;;;;;;10.03;5.70;;;2.10;99.90;;;;;;4882345;29;20457;-67
2021/01/06 11:55:44;;;;;;;10.43;5.60;;;2.00;99.90;;;;;;4882138;29;20434;-68
2021/01/06 11:58:29;;;;;;;8.97;5.87;;;2.00;99.90;;;;;;4882059;29;20435;-68
2021/01/06 12:01:19;;;;;;;9.87;5.83;;;2.00;99.90;;;;;;4882066;29;20855;-68
2021/01/06 12:04:13;;;;;;;7.50;5.37;;;2.00;99.90;;;;;;4881936;29;20477;-68
2021/01/06 12:07:14;;;;;;;14.40;8.63;;;2.00;99.90;;;;;;4847240;29;20803;-68
2021/01/06 12:09:53;;;;;;;10.50;6.60;;;2.00;99.90;;;;;;4877079;29;20850;-68
2021/01/06 12:12:32;;;;;;;9.50;6.87;;;2.00;99.90;;;;;;4881911;29;20438;-68
2021/01/06 12:15:07;;;;;;;7.90;5.90;;;2.00;99.90;;;;;;4881791;29;20451;-68
2021/01/06 12:17:38;;;;;;;9.63;5.80;;;2.00;99.90;;;;;;4881808;29;20442;-68
2021/01/06 12:20:17;;;;;;;9.90;6.60;;;2.00;99.90;;;;;;4881730;29;20515;-68
2021/01/06 12:23:33;;;;;;;14.63;7.47;;;2.00;99.90;;;;;;4881528;29;20445;-68
2021/01/06 12:26:00;;;;;;;8.07;5.40;;;2.00;99.90;;;;;;4805791;29;20436;-68
2021/01/06 12:28:32;;;;;;;7.90;5.20;;;2.00;99.90;;;;;;4863276;29;20493;-68
2021/01/06 12:31:10;;;;;;;7.40;5.43;;;2.10;99.90;;;;;;4881579;29;20498;-69
2021/01/06 12:33:42;;;;;;;8.10;5.10;;;2.10;99.90;;;;;;4881440;29;20481;-68
2021/01/06 12:36:21;;;;;;;9.60;5.07;;;2.10;99.90;;;;;;4881445;29;20420;-67
2021/01/06 12:38:49;;;;;;;7.57;5.40;;;2.10;99.90;;;;;;4881417;29;20437;-67
2021/01/06 12:41:19;;;;;;;6.27;4.63;;;2.10;99.90;;;;;;4881379;29;20419;-67
2021/01/06 12:43:50;;;;;;;6.40;4.57;;;2.10;99.90;;;;;;4881283;29;20452;-67
2021/01/06 12:46:33;;;;;;;7.73;5.60;;;2.10;99.90;;;;;;4881236;29;20484;-67
2021/01/06 12:49:30;;;;;;;10.40;5.00;;;2.10;99.90;;;;;;4881193;29;20478;-67
2021/01/06 12:52:39;;;;;;;10.83;5.27;;;2.10;99.90;;;;;;4880833;29;20476;-66
2021/01/06 12:55:28;;;;;;;8.97;5.50;;;2.10;99.90;;;;;;4880927;29;20473;-67
2021/01/06 12:57:59;;;;;;;7.50;5.23;;;2.10;99.90;;;;;;4881090;29;20444;-67
2021/01/06 13:00:35;;;;;;;9.47;5.90;;;2.10;99.90;;;;;;4881054;29;20486;-67
2021/01/06 13:03:26;;;;;;;12.10;5.70;;;2.20;99.90;;;;;;4880910;29;20846;-67
2021/01/06 13:05:57;;;;;;;10.37;5.40;;;2.20;99.90;;;;;;4851604;29;20448;-67
2021/01/06 13:08:32;;;;;;;8.90;5.33;;;2.20;99.90;;;;;;4880868;29;20500;-67
2021/01/06 13:11:09;;;;;;;9.60;5.77;;;2.20;99.90;;;;;;4880874;29;20437;-67
2021/01/06 13:13:38;;;;;;;7.67;5.60;;;2.20;99.90;;;;;;4880454;29;20855;-67
2021/01/06 13:16:22;;;;;;;7.43;5.60;;;2.20;99.90;;;;;;4880610;29;20460;-67
2021/01/06 13:18:51;;;;;;;10.73;6.47;;;2.20;99.90;;;;;;4880591;29;20438;-67
2021/01/06 13:21:26;;;;;;;8.10;4.73;;;2.10;99.90;;;;;;4880588;29;20442;-67
2021/01/06 13:24:10;;;;;;;11.80;6.43;;;2.20;99.90;;;;;;4880202;29;20850;-67
2021/01/06 13:26:41;;;;;;;8.47;5.23;;;2.10;99.90;;;;;;4880496;29;20437;-67
2021/01/06 13:29:25;;;;;;;8.87;6.03;;;2.10;99.90;;;;;;4880123;29;20964;-67